createdAt,value
2022-08-14T00:00:16.841Z,50.08
2022-08-14T00:03:02.624Z,50.35
2022-08-14T00:05:58.267Z,50.25
2022-08-14T00:08:45.879Z,50.19
2022-08-14T00:11:32.020Z,50.25
2022-08-14T00:14:18.319Z,50.28
2022-08-14T00:17:05.656Z,50.26
2022-08-14T00:19:51.764Z,50.43
2022-08-14T00:22:56.948Z,50.21
2022-08-14T00:25:54.107Z,50.43
2022-08-14T00:28:52.508Z,50.38
2022-08-14T00:31:45.726Z,50.35
2022-08-14T00:34:36.732Z,50.35
2022-08-14T00:37:32.314Z,50.40
2022-08-14T00:40:33.300Z,50.45
2022-08-14T00:43:21.184Z,50.29
2022-08-14T00:46:32.317Z,50.37
2022-08-14T00:49:16.133Z,50.35
2022-08-14T00:52:01.559Z,50.44
2022-08-14T00:54:58.289Z,50.31
2022-08-14T00:57:44.169Z,50.31
2022-08-14T01:00:37.468Z,50.19
2022-08-14T01:03:32.059Z,50.41
2022-08-14T01:06:18.527Z,50.28
2022-08-14T01:09:04.532Z,50.37
2022-08-14T01:12:02.973Z,50.21
2022-08-14T01:14:55.193Z,50.38
2022-08-14T01:18:02.279Z,50.27
2022-08-14T01:21:07.226Z,50.37
2022-08-14T01:23:54.105Z,50.37
2022-08-14T01:26:43.276Z,50.39
2022-08-14T01:29:59.182Z,50.31
2022-08-14T01:32:44.142Z,50.25
2022-08-14T01:36:03.010Z,50.35
2022-08-14T01:38:37.298Z,50.48
2022-08-14T01:41:30.154Z,50.02
2022-08-14T01:44:33.185Z,50.31
2022-08-14T01:47:22.279Z,50.23
2022-08-14T01:50:09.288Z,50.31
2022-08-14T01:52:59.668Z,50.31
2022-08-14T01:55:45.458Z,50.31
2022-08-14T01:58:31.219Z,50.33
2022-08-14T02:01:18.152Z,50.29
2022-08-14T02:04:06.504Z,50.46
2022-08-14T02:07:15.677Z,50.43
2022-08-14T02:10:01.122Z,50.27
2022-08-14T02:12:54.100Z,50.19
2022-08-14T02:15:40.896Z,50.19
2022-08-14T02:18:32.591Z,50.28
2022-08-14T02:21:19.379Z,50.24
2022-08-14T02:24:09.379Z,50.46
2022-08-14T02:28:25.149Z,50.43
2022-08-14T02:30:20.300Z,50.44
2022-08-14T02:33:07.401Z,50.38
2022-08-14T02:35:57.918Z,50.20
2022-08-14T02:38:50.742Z,50.42
2022-08-14T02:41:39.956Z,50.35
2022-08-14T02:44:30.614Z,50.36
2022-08-14T02:47:20.559Z,50.39
2022-08-14T02:50:07.463Z,50.48
2022-08-14T02:52:57.460Z,50.53
2022-08-14T02:55:48.739Z,50.28
2022-08-14T02:58:38.640Z,50.49
2022-08-14T03:01:31.084Z,50.43
2022-08-14T03:04:20.364Z,50.36
2022-08-14T03:07:08.135Z,50.53
2022-08-14T03:10:26.899Z,50.46
2022-08-14T03:12:59.364Z,50.34
2022-08-14T03:15:47.523Z,50.50
2022-08-14T03:18:42.539Z,50.45
2022-08-14T03:21:30.141Z,50.49
2022-08-14T03:24:22.918Z,50.54
2022-08-14T03:27:09.298Z,50.37
2022-08-14T03:29:55.211Z,50.47
2022-08-14T03:32:40.934Z,50.53
2022-08-14T03:35:30.885Z,50.37
2022-08-14T03:39:12.573Z,50.33
2022-08-14T03:41:33.193Z,50.44
2022-08-14T03:45:26.762Z,50.50
2022-08-14T03:47:34.260Z,50.45
2022-08-14T03:50:32.558Z,50.34
2022-08-14T03:53:20.147Z,50.35
2022-08-14T03:56:06.608Z,50.59
2022-08-14T03:58:56.879Z,50.51
2022-08-14T04:01:45.746Z,50.55
2022-08-14T04:04:39.484Z,50.45
2022-08-14T04:07:28.662Z,50.33
2022-08-14T04:10:31.692Z,50.38
2022-08-14T04:13:18.366Z,50.45
2022-08-14T04:16:22.930Z,50.36
2022-08-14T04:19:10.144Z,50.37
2022-08-14T04:22:02.232Z,50.43
2022-08-14T04:24:49.659Z,50.36
2022-08-14T04:28:02.489Z,50.41
2022-08-14T04:30:42.858Z,50.43
2022-08-14T04:33:32.208Z,50.38
2022-08-14T04:36:18.969Z,50.34
2022-08-14T04:39:23.169Z,50.50
2022-08-14T04:42:27.240Z,50.41
2022-08-14T04:45:14.387Z,50.39
2022-08-14T04:48:38.677Z,50.36
2022-08-14T04:51:26.712Z,50.33
2022-08-14T04:54:12.305Z,50.45
2022-08-14T04:56:58.748Z,50.43
2022-08-14T04:59:44.056Z,50.29
2022-08-14T05:02:29.576Z,50.53
2022-08-14T05:05:21.062Z,50.38
2022-08-14T05:08:12.123Z,50.50
2022-08-14T05:11:19.347Z,50.27
2022-08-14T05:14:33.700Z,50.39
2022-08-14T05:17:12.046Z,50.45
2022-08-14T05:21:04.859Z,50.42
2022-08-14T05:23:03.632Z,50.27
2022-08-14T05:25:51.505Z,50.38
2022-08-14T05:28:38.985Z,50.49
2022-08-14T05:31:24.520Z,50.41
2022-08-14T05:34:31.558Z,50.43
2022-08-14T05:37:17.417Z,50.50
2022-08-14T05:40:03.000Z,50.53
2022-08-14T05:42:52.634Z,50.43
2022-08-14T05:45:38.487Z,50.37
2022-08-14T05:48:33.445Z,50.47
2022-08-14T05:51:21.051Z,50.46
2022-08-14T05:54:13.716Z,50.56
2022-08-14T05:57:12.181Z,50.49
2022-08-14T05:59:57.464Z,50.39
2022-08-14T06:02:46.027Z,50.48
2022-08-14T06:05:31.914Z,50.53
2022-08-14T06:08:41.044Z,50.38
2022-08-14T06:11:30.820Z,50.49
2022-08-14T06:14:21.354Z,50.30
2022-08-14T06:17:09.520Z,50.31
2022-08-14T06:20:01.355Z,50.22
2022-08-14T06:22:47.530Z,50.36
2022-08-14T06:25:35.214Z,50.41
2022-08-14T06:28:28.102Z,50.45
2022-08-14T06:31:13.888Z,50.26
2022-08-14T06:35:11.662Z,50.30
2022-08-14T06:37:05.873Z,50.96
2022-08-14T06:39:51.177Z,52.70
2022-08-14T06:42:37.787Z,55.19
2022-08-14T06:45:26.311Z,56.67
2022-08-14T06:48:38.628Z,53.85
2022-08-14T06:51:38.949Z,53.63
2022-08-14T06:54:32.136Z,53.47
2022-08-14T06:57:17.340Z,53.06
2022-08-14T07:00:08.670Z,53.02
2022-08-14T07:03:26.240Z,53.07
2022-08-14T07:06:21.617Z,52.97
2022-08-14T07:09:22.662Z,52.68
2022-08-14T07:12:08.993Z,52.72
2022-08-14T07:15:14.184Z,52.82
2022-08-14T07:17:59.948Z,52.71
2022-08-14T07:20:46.080Z,52.42
2022-08-14T07:23:31.601Z,52.51
2022-08-14T07:26:17.382Z,52.37
2022-08-14T07:29:02.643Z,52.30
2022-08-14T07:31:51.363Z,52.23
2022-08-14T07:34:41.255Z,52.30
2022-08-14T07:37:26.684Z,52.29
2022-08-14T07:40:12.859Z,52.20
2022-08-14T07:43:14.257Z,52.15
2022-08-14T07:45:59.654Z,51.88
2022-08-14T07:48:45.882Z,52.00
2022-08-14T07:51:36.966Z,51.77
2022-08-14T07:54:30.112Z,51.90
2022-08-14T07:57:24.813Z,51.98
2022-08-14T08:00:30.955Z,51.96
2022-08-14T08:03:17.938Z,51.90
2022-08-14T08:06:10.623Z,52.11
2022-08-14T08:09:03.512Z,51.96
2022-08-14T08:11:54.500Z,51.94
2022-08-14T08:14:55.427Z,51.85
2022-08-14T08:17:53.690Z,51.84
2022-08-14T08:20:52.198Z,51.79
2022-08-14T08:23:43.642Z,51.73
2022-08-14T08:26:37.073Z,51.64
2022-08-14T08:29:28.458Z,51.56
2022-08-14T08:32:14.816Z,51.74
2022-08-14T08:35:01.008Z,51.63
2022-08-14T08:37:48.046Z,51.55
2022-08-14T08:40:42.505Z,51.47
2022-08-14T08:43:32.997Z,51.55
2022-08-14T08:46:24.082Z,51.54
2022-08-14T08:49:10.661Z,51.48
2022-08-14T08:52:04.381Z,51.33
2022-08-14T08:54:54.656Z,51.29
2022-08-14T08:57:40.221Z,51.26
2022-08-14T09:00:32.511Z,51.11
2022-08-14T09:03:21.605Z,51.03
2022-08-14T09:06:56.947Z,50.91
2022-08-14T09:09:21.692Z,51.24
2022-08-14T09:12:13.959Z,51.15
2022-08-14T09:15:02.584Z,51.08
2022-08-14T09:17:48.244Z,51.14
2022-08-14T09:20:34.855Z,51.06
2022-08-14T09:23:27.345Z,50.89
2022-08-14T09:26:21.677Z,50.96
2022-08-14T09:29:07.681Z,50.82
2022-08-14T09:32:00.447Z,50.92
2022-08-14T09:34:59.078Z,51.03
2022-08-14T09:37:48.812Z,50.88
2022-08-14T09:40:47.702Z,50.89
2022-08-14T09:43:48.884Z,50.92
2022-08-14T09:46:35.610Z,50.74
2022-08-14T09:49:40.613Z,50.72
2022-08-14T09:52:34.155Z,50.88
2022-08-14T09:55:21.460Z,50.85
2022-08-14T09:58:14.775Z,50.48
2022-08-14T10:01:12.699Z,50.66
2022-08-14T10:03:59.675Z,50.69
2022-08-14T10:06:45.663Z,50.76
2022-08-14T10:09:33.420Z,50.75
2022-08-14T10:12:28.810Z,50.60
2022-08-14T10:15:21.178Z,50.76
2022-08-14T10:18:17.499Z,50.75
2022-08-14T10:21:09.674Z,50.72
2022-08-14T10:23:55.207Z,50.63
2022-08-14T10:26:43.558Z,50.73
2022-08-14T10:29:38.440Z,50.77
2022-08-14T10:32:29.054Z,50.78
2022-08-14T10:35:23.140Z,50.56
2022-08-14T10:38:13.350Z,50.55
2022-08-14T10:41:16.613Z,50.50
2022-08-14T10:44:21.302Z,50.64
2022-08-14T10:47:39.280Z,50.69
2022-08-14T10:50:16.435Z,50.70
2022-08-14T10:53:05.550Z,50.44
2022-08-14T10:55:58.931Z,50.60
2022-08-14T10:58:44.353Z,50.66
2022-08-14T11:01:41.104Z,50.59
2022-08-14T11:04:30.113Z,50.35
2022-08-14T11:07:21.054Z,50.66
2022-08-14T11:10:12.412Z,50.60
2022-08-14T11:12:57.869Z,50.57
2022-08-14T11:15:46.287Z,50.55
2022-08-14T11:18:39.836Z,50.45
2022-08-14T11:21:30.368Z,50.48
2022-08-14T11:24:55.323Z,50.28
2022-08-14T11:27:33.305Z,50.23
2022-08-14T11:30:50.981Z,50.46
2022-08-14T11:33:36.384Z,50.42
2022-08-14T11:36:24.154Z,50.23
2022-08-14T11:39:34.948Z,50.33
2022-08-14T11:42:57.144Z,50.37
2022-08-14T11:45:34.364Z,50.21
2022-08-14T11:49:02.260Z,50.18
2022-08-14T11:51:30.615Z,50.40
2022-08-14T11:54:34.739Z,50.55
2022-08-14T11:57:22.909Z,50.40
2022-08-14T12:00:19.383Z,50.66
2022-08-14T12:03:05.544Z,49.93
2022-08-14T12:05:51.710Z,50.47
2022-08-14T12:08:38.834Z,50.26
2022-08-14T12:11:25.064Z,50.35
2022-08-14T12:14:13.291Z,50.27
2022-08-14T12:17:15.059Z,50.41
2022-08-14T12:20:10.445Z,50.51
2022-08-14T12:23:08.267Z,50.52
2022-08-14T12:26:32.193Z,50.45
2022-08-14T12:29:16.933Z,50.21
2022-08-14T12:32:09.180Z,50.42
2022-08-14T12:34:58.090Z,50.40
2022-08-14T12:37:51.523Z,50.65
2022-08-14T12:40:53.899Z,50.38
2022-08-14T12:43:53.615Z,50.49
2022-08-14T12:46:46.805Z,50.35
2022-08-14T12:49:33.742Z,50.47
2022-08-14T12:52:45.395Z,50.57
2022-08-14T12:56:17.736Z,50.65
2022-08-14T12:58:53.953Z,50.62
2022-08-14T13:01:59.590Z,50.72
2022-08-14T13:04:49.355Z,50.45
2022-08-14T13:07:39.916Z,50.34
2022-08-14T13:10:51.492Z,50.32
2022-08-14T13:13:34.858Z,50.53
2022-08-14T13:16:37.959Z,50.62
2022-08-14T13:19:28.130Z,50.31
2022-08-14T13:22:28.755Z,50.42
2022-08-14T13:25:24.558Z,50.50
2022-08-14T13:28:12.302Z,50.16
2022-08-14T13:31:16.758Z,50.48
2022-08-14T13:34:03.436Z,50.56
2022-08-14T13:36:54.329Z,50.45
2022-08-14T13:39:56.346Z,50.59
2022-08-14T13:42:44.933Z,50.34
2022-08-14T13:46:00.479Z,50.63
2022-08-14T13:48:39.387Z,50.59
2022-08-14T13:51:34.376Z,50.36
2022-08-14T13:54:22.615Z,50.32
2022-08-14T13:57:12.385Z,50.49
2022-08-14T14:00:03.250Z,50.39
2022-08-14T14:02:59.234Z,50.46
2022-08-14T14:05:52.674Z,50.52
2022-08-14T14:08:48.948Z,50.66
2022-08-14T14:11:35.949Z,50.40
2022-08-14T14:14:45.134Z,50.29
2022-08-14T14:17:31.592Z,50.32
2022-08-14T14:20:35.471Z,50.42
2022-08-14T14:23:23.532Z,50.47
2022-08-14T14:26:13.806Z,50.25
2022-08-14T14:29:01.282Z,50.39
2022-08-14T14:31:51.065Z,50.60
2022-08-14T14:34:39.335Z,50.35
2022-08-14T14:37:26.837Z,50.96
2022-08-14T14:40:54.023Z,51.33
2022-08-14T14:43:21.097Z,51.06
2022-08-14T14:46:09.702Z,50.76
2022-08-14T14:49:01.095Z,50.99
2022-08-14T14:51:51.428Z,50.83
2022-08-14T14:54:39.257Z,50.88
2022-08-14T14:57:35.211Z,50.92
2022-08-14T15:00:21.948Z,50.65
2022-08-14T15:03:07.262Z,50.79
2022-08-14T15:05:53.317Z,50.61
2022-08-14T15:08:56.511Z,50.57
2022-08-14T15:11:45.991Z,50.77
2022-08-14T15:14:57.289Z,50.65
2022-08-14T15:17:41.781Z,50.82
2022-08-14T15:20:30.346Z,50.84
2022-08-14T15:23:16.424Z,50.83
2022-08-14T15:26:02.327Z,50.74
2022-08-14T15:29:02.878Z,50.87
2022-08-14T15:31:50.637Z,50.64
2022-08-14T15:34:51.520Z,50.81
2022-08-14T15:37:42.394Z,50.64
2022-08-14T15:40:28.269Z,50.77
2022-08-14T15:43:13.402Z,50.77
2022-08-14T15:45:59.298Z,50.81
2022-08-14T15:48:46.094Z,50.59
2022-08-14T15:51:32.782Z,50.78
2022-08-14T15:54:22.094Z,50.73
2022-08-14T15:57:09.887Z,50.67
2022-08-14T16:00:40.553Z,50.91
2022-08-14T16:03:27.315Z,50.75
2022-08-14T16:06:23.097Z,50.57
2022-08-14T16:09:11.253Z,50.79
2022-08-14T16:11:59.183Z,50.78
2022-08-14T16:14:45.837Z,50.65
2022-08-14T16:17:31.855Z,51.59
2022-08-14T16:20:41.545Z,51.11
2022-08-14T16:23:26.604Z,50.96
2022-08-14T16:26:29.295Z,50.86
2022-08-14T16:29:18.626Z,50.98
2022-08-14T16:32:32.798Z,51.04
2022-08-14T16:35:13.502Z,50.91
2022-08-14T16:38:00.336Z,50.95
2022-08-14T16:41:25.968Z,51.00
2022-08-14T16:44:21.789Z,50.96
2022-08-14T16:47:17.482Z,50.89
2022-08-14T16:50:11.340Z,51.07
2022-08-14T16:52:58.676Z,50.93
2022-08-14T16:55:53.414Z,50.91
2022-08-14T16:58:41.884Z,50.89
2022-08-14T17:01:27.544Z,50.77
2022-08-14T17:04:24.952Z,50.91
2022-08-14T17:07:13.434Z,51.08
2022-08-14T17:10:09.810Z,51.16
2022-08-14T17:13:27.383Z,50.92
2022-08-14T17:16:37.312Z,50.94
2022-08-14T17:19:23.061Z,50.81
2022-08-14T17:22:11.504Z,50.77
2022-08-14T17:25:03.795Z,51.02
2022-08-14T17:28:51.256Z,50.87
2022-08-14T17:31:57.865Z,51.13
2022-08-14T17:34:53.687Z,50.97
2022-08-14T17:37:45.204Z,50.82
2022-08-14T17:40:30.967Z,50.90
2022-08-14T17:43:16.145Z,50.96
2022-08-14T17:46:02.574Z,50.96
2022-08-14T17:49:14.570Z,52.63
2022-08-14T17:52:16.977Z,52.93
2022-08-14T17:55:07.076Z,51.85
2022-08-14T17:57:54.681Z,51.74
2022-08-14T18:00:43.574Z,52.04
2022-08-14T18:03:50.420Z,52.16
2022-08-14T18:06:39.537Z,52.07
2022-08-14T18:09:57.527Z,52.15
2022-08-14T18:12:45.833Z,52.45
2022-08-14T18:15:36.932Z,52.27
2022-08-14T18:18:23.164Z,52.28
2022-08-14T18:21:23.533Z,52.17
2022-08-14T18:24:27.865Z,52.37
2022-08-14T18:27:23.217Z,52.30
2022-08-14T18:30:32.001Z,52.23
2022-08-14T18:33:22.185Z,52.21
2022-08-14T18:36:48.106Z,52.22
2022-08-14T18:39:32.641Z,52.12
2022-08-14T18:42:22.998Z,52.06
2022-08-14T18:45:15.433Z,52.04
2022-08-14T18:48:16.945Z,52.01
2022-08-14T18:51:06.065Z,51.96
2022-08-14T18:53:59.552Z,51.95
2022-08-14T18:57:01.638Z,51.98
2022-08-14T18:59:47.002Z,52.07
2022-08-14T19:02:43.639Z,51.99
2022-08-14T19:05:41.070Z,51.93
2022-08-14T19:08:37.806Z,51.96
2022-08-14T19:11:32.574Z,52.04
2022-08-14T19:14:45.745Z,51.92
2022-08-14T19:18:14.869Z,52.01
2022-08-14T19:20:55.478Z,51.95
2022-08-14T19:23:44.697Z,51.93
2022-08-14T19:26:54.316Z,51.94
2022-08-14T19:29:40.664Z,51.78
2022-08-14T19:32:33.171Z,51.95
2022-08-14T19:35:24.871Z,51.84
2022-08-14T19:39:04.091Z,51.87
2022-08-14T19:41:57.314Z,51.77
2022-08-14T19:44:44.590Z,51.95
2022-08-14T19:47:45.500Z,51.73
2022-08-14T19:50:39.005Z,51.71
2022-08-14T19:53:26.910Z,51.67
2022-08-14T19:56:12.260Z,51.61
2022-08-14T19:59:19.326Z,51.53
2022-08-14T20:02:06.228Z,51.58
2022-08-14T20:05:03.636Z,51.60
2022-08-14T20:07:59.507Z,51.49
2022-08-14T20:11:06.881Z,51.57
2022-08-14T20:14:12.012Z,51.62
2022-08-14T20:17:08.559Z,51.43
2022-08-14T20:19:54.463Z,51.47
2022-08-14T20:22:39.853Z,51.66
2022-08-14T20:25:25.023Z,51.44
2022-08-14T20:28:29.953Z,51.78
2022-08-14T20:31:18.123Z,51.49
2022-08-14T20:34:06.132Z,51.47
2022-08-14T20:37:01.964Z,51.66
2022-08-14T20:39:54.895Z,51.67
2022-08-14T20:42:59.572Z,51.61
2022-08-14T20:45:48.607Z,51.32
2022-08-14T20:48:52.362Z,51.46
2022-08-14T20:51:54.617Z,51.49
2022-08-14T20:54:50.662Z,51.61
2022-08-14T20:57:44.021Z,51.42
2022-08-14T21:00:52.488Z,51.49
2022-08-14T21:03:57.932Z,51.63
2022-08-14T21:07:23.118Z,51.48
2022-08-14T21:10:35.891Z,51.58
2022-08-14T21:14:09.308Z,51.48
2022-08-14T21:16:33.419Z,51.56
2022-08-14T21:19:23.076Z,51.49
2022-08-14T21:22:09.882Z,51.57
2022-08-14T21:25:02.297Z,51.54
2022-08-14T21:27:56.589Z,51.44
2022-08-14T21:30:51.937Z,51.37
2022-08-14T21:33:42.833Z,51.37
2022-08-14T21:36:30.934Z,51.54
2022-08-14T21:39:19.468Z,51.57
2022-08-14T21:42:06.266Z,51.56
2022-08-14T21:44:53.514Z,51.33
2022-08-14T21:47:43.358Z,51.39
2022-08-14T21:50:56.667Z,51.59
2022-08-14T21:53:34.403Z,51.57
2022-08-14T21:56:20.069Z,51.57
2022-08-14T21:59:09.878Z,51.47
2022-08-14T22:02:03.615Z,51.46
2022-08-14T22:04:49.437Z,51.44
2022-08-14T22:07:36.436Z,51.51
2022-08-14T22:10:24.628Z,51.38
2022-08-14T22:13:11.316Z,51.66
2022-08-14T22:15:59.705Z,51.44
2022-08-14T22:18:48.100Z,51.41
2022-08-14T22:21:38.455Z,51.41
2022-08-14T22:24:38.013Z,51.48
2022-08-14T22:27:55.482Z,51.45
2022-08-14T22:30:43.995Z,51.50
2022-08-14T22:33:31.118Z,51.53
2022-08-14T22:36:41.971Z,51.47
2022-08-14T22:40:17.430Z,51.42
2022-08-14T22:42:37.219Z,51.26
2022-08-14T22:45:23.387Z,51.36
2022-08-14T22:48:10.911Z,51.43
2022-08-14T22:50:57.158Z,51.48
2022-08-14T22:53:48.453Z,51.64
2022-08-14T22:56:34.276Z,51.52
2022-08-14T22:59:36.951Z,51.48
2022-08-14T23:02:32.051Z,51.45
2022-08-14T23:05:18.067Z,51.52
2022-08-14T23:09:01.961Z,51.34
2022-08-14T23:11:29.095Z,51.52
2022-08-14T23:14:24.005Z,51.36
2022-08-14T23:17:12.473Z,51.30
2022-08-14T23:19:58.030Z,51.40
2022-08-14T23:22:45.713Z,51.45
2022-08-14T23:25:57.440Z,51.28
2022-08-14T23:28:56.573Z,51.36
2022-08-14T23:31:44.403Z,51.47
2022-08-14T23:34:30.977Z,51.44
2022-08-14T23:37:19.373Z,51.36
2022-08-14T23:40:26.721Z,51.37
2022-08-14T23:43:16.570Z,51.37
2022-08-14T23:46:01.974Z,51.37
2022-08-14T23:48:58.497Z,51.53
2022-08-14T23:51:44.110Z,51.37
2022-08-14T23:54:48.408Z,51.59
2022-08-14T23:57:34.885Z,51.31
